sensor_id;sensor_type;location;lat;lon;timestamp;pressure;altitude;pressure_sealevel;temperature;humidity
59103;BME280;43999;51.660;5.616;2023-03-22T00:00:15;100786.84;;;9.26;100.00
59103;BME280;43999;51.660;5.616;2023-03-22T00:02:43;100785.06;;;9.26;100.00
59103;BME280;43999;51.660;5.616;2023-03-22T00:05:14;100786.94;;;9.24;100.00
59103;BME280;43999;51.660;5.616;2023-03-22T00:07:42;100773.31;;;9.18;100.00
59103;BME280;43999;51.660;5.616;2023-03-22T00:10:13;100780.94;;;9.22;100.00
59103;BME280;43999;51.660;5.616;2023-03-22T00:12:41;100775.84;;;9.19;100.00
59103;BME280;43999;51.660;5.616;2023-03-22T00:15:10;100780.31;;;9.17;100.00
59103;BME280;43999;51.660;5.616;2023-03-22T00:17:39;100771.69;;;9.15;100.00
59103;BME280;43999;51.660;5.616;2023-03-22T00:20:09;100770.84;;;9.14;100.00
59103;BME280;43999;51.660;5.616;2023-03-22T00:22:38;100761.38;;;9.12;100.00
59103;BME280;43999;51.660;5.616;2023-03-22T00:25:08;100760.69;;;9.08;100.00
59103;BME280;43999;51.660;5.616;2023-03-22T00:27:38;100758.91;;;9.09;100.00
59103;BME280;43999;51.660;5.616;2023-03-22T00:30:07;100755.53;;;9.07;100.00
59103;BME280;43999;51.660;5.616;2023-03-22T00:32:37;100739.94;;;9.05;100.00
59103;BME280;43999;51.660;5.616;2023-03-22T00:35:06;100740.84;;;9.04;100.00
59103;BME280;43999;51.660;5.616;2023-03-22T00:37:36;100740.00;;;9.04;100.00
59103;BME280;43999;51.660;5.616;2023-03-22T00:40:09;100733.16;;;9.01;100.00
59103;BME280;43999;51.660;5.616;2023-03-22T00:42:42;100736.78;;;8.99;100.00
59103;BME280;43999;51.660;5.616;2023-03-22T00:45:12;100735.09;;;8.97;100.00
59103;BME280;43999;51.660;5.616;2023-03-22T00:47:39;100723.00;;;8.95;100.00
59103;BME280;43999;51.660;5.616;2023-03-22T00:50:08;100719.56;;;8.94;100.00
59103;BME280;43999;51.660;5.616;2023-03-22T00:52:40;100716.19;;;8.92;100.00
59103;BME280;43999;51.660;5.616;2023-03-22T00:55:09;100718.78;;;8.92;100.00
59103;BME280;43999;51.660;5.616;2023-03-22T00:57:36;100711.88;;;8.91;100.00
59103;BME280;43999;51.660;5.616;2023-03-22T01:00:07;100711.88;;;8.91;100.00
59103;BME280;43999;51.660;5.616;2023-03-22T01:02:42;100711.03;;;8.91;100.00
59103;BME280;43999;51.660;5.616;2023-03-22T01:05:15;100709.47;;;8.87;100.00
59103;BME280;43999;51.660;5.616;2023-03-22T01:08:10;100711.09;;;8.89;100.00
59103;BME280;43999;51.660;5.616;2023-03-22T01:10:40;100703.34;;;8.88;100.00
59103;BME280;43999;51.660;5.616;2023-03-22T01:13:12;100701.63;;;8.87;100.00
59103;BME280;43999;51.660;5.616;2023-03-22T01:15:42;100699.09;;;8.85;100.00
59103;BME280;43999;51.660;5.616;2023-03-22T01:18:10;100683.41;;;8.85;100.00
59103;BME280;43999;51.660;5.616;2023-03-22T01:20:39;100687.81;;;8.85;100.00
59103;BME280;43999;51.660;5.616;2023-03-22T01:23:08;100678.28;;;8.84;100.00
59103;BME280;43999;51.660;5.616;2023-03-22T01:25:38;100678.19;;;8.85;100.00
59103;BME280;43999;51.660;5.616;2023-03-22T01:28:09;100671.34;;;8.83;100.00
59103;BME280;43999;51.660;5.616;2023-03-22T01:30:40;100667.91;;;8.82;100.00
59103;BME280;43999;51.660;5.616;2023-03-22T01:33:09;100656.59;;;8.82;100.00
59103;BME280;43999;51.660;5.616;2023-03-22T01:35:38;100649.59;;;8.82;100.00
59103;BME280;43999;51.660;5.616;2023-03-22T01:38:07;100648.63;;;8.85;100.00
59103;BME280;43999;51.660;5.616;2023-03-22T01:40:40;100637.22;;;8.86;100.00
59103;BME280;43999;51.660;5.616;2023-03-22T01:43:15;100634.47;;;8.89;100.00
59103;BME280;43999;51.660;5.616;2023-03-22T01:45:47;100631.69;;;8.92;100.00
59103;BME280;43999;51.660;5.616;2023-03-22T01:48:45;100627.09;;;8.97;100.00
59103;BME280;43999;51.660;5.616;2023-03-22T01:51:22;100620.84;;;9.00;100.00
59103;BME280;43999;51.660;5.616;2023-03-22T01:54:44;100605.09;;;9.01;100.00
59103;BME280;43999;51.660;5.616;2023-03-22T01:57:39;100604.94;;;9.04;100.00
59103;BME280;43999;51.660;5.616;2023-03-22T02:00:17;100591.78;;;9.06;100.00
59103;BME280;43999;51.660;5.616;2023-03-22T02:03:57;100589.88;;;9.09;100.00
59103;BME280;43999;51.660;5.616;2023-03-22T02:06:54;100588.84;;;9.12;100.00
59103;BME280;43999;51.660;5.616;2023-03-22T02:09:24;100587.94;;;9.13;100.00
59103;BME280;43999;51.660;5.616;2023-03-22T02:12:42;100584.25;;;9.17;100.00
59103;BME280;43999;51.660;5.616;2023-03-22T02:15:45;100577.31;;;9.16;100.00
59103;BME280;43999;51.660;5.616;2023-03-22T02:19:13;100573.63;;;9.20;100.00
59103;BME280;43999;51.660;5.616;2023-03-22T02:32:32;100561.09;;;9.27;100.00
59103;BME280;43999;51.660;5.616;2023-03-22T02:35:52;100569.59;;;9.30;100.00
59103;BME280;43999;51.660;5.616;2023-03-22T02:39:07;100559.22;;;9.29;100.00
59103;BME280;43999;51.660;5.616;2023-03-22T02:45:39;100550.38;;;9.31;100.00
59103;BME280;43999;51.660;5.616;2023-03-22T02:49:08;100553.81;;;9.32;100.00
59103;BME280;43999;51.660;5.616;2023-03-22T02:51:47;100554.66;;;9.32;100.00
59103;BME280;43999;51.660;5.616;2023-03-22T02:58:26;100544.03;;;9.36;100.00
59103;BME280;43999;51.660;5.616;2023-03-22T03:01:02;100542.22;;;9.38;100.00
59103;BME280;43999;51.660;5.616;2023-03-22T03:03:33;100530.78;;;9.39;100.00
59103;BME280;43999;51.660;5.616;2023-03-22T03:06:15;100529.88;;;9.40;100.00
59103;BME280;43999;51.660;5.616;2023-03-22T03:08:49;100517.56;;;9.42;100.00
59103;BME280;43999;51.660;5.616;2023-03-22T03:11:20;100523.66;;;9.42;100.00
59103;BME280;43999;51.660;5.616;2023-03-22T03:13:50;100525.31;;;9.43;100.00
59103;BME280;43999;51.660;5.616;2023-03-22T03:16:26;100534.88;;;9.44;100.00
59103;BME280;43999;51.660;5.616;2023-03-22T03:25:37;100521.03;;;9.42;100.00
59103;BME280;43999;51.660;5.616;2023-03-22T03:37:51;100514.69;;;9.46;100.00
59103;BME280;43999;51.660;5.616;2023-03-22T03:40:54;100512.16;;;9.45;100.00
59103;BME280;43999;51.660;5.616;2023-03-22T03:43:28;100513.94;;;9.44;100.00
59103;BME280;43999;51.660;5.616;2023-03-22T03:45:59;100514.78;;;9.45;100.00
59103;BME280;43999;51.660;5.616;2023-03-22T03:48:31;100522.63;;;9.45;100.00
59103;BME280;43999;51.660;5.616;2023-03-22T03:51:03;100516.56;;;9.44;100.00
59103;BME280;43999;51.660;5.616;2023-03-22T03:53:32;100516.63;;;9.43;100.00
59103;BME280;43999;51.660;5.616;2023-03-22T03:56:00;100518.44;;;9.42;100.00
59103;BME280;43999;51.660;5.616;2023-03-22T03:58:37;100522.78;;;9.42;100.00
59103;BME280;43999;51.660;5.616;2023-03-22T04:01:09;100522.03;;;9.40;100.00
59103;BME280;43999;51.660;5.616;2023-03-22T04:03:56;100520.41;;;9.37;100.00
59103;BME280;43999;51.660;5.616;2023-03-22T04:06:42;100522.38;;;9.33;100.00
59103;BME280;43999;51.660;5.616;2023-03-22T04:09:15;100534.59;;;9.33;100.00
59103;BME280;43999;51.660;5.616;2023-03-22T04:11:48;100526.16;;;9.28;100.00
59103;BME280;43999;51.660;5.616;2023-03-22T04:14:20;100513.16;;;9.26;100.00
59103;BME280;43999;51.660;5.616;2023-03-22T04:16:53;100525.47;;;9.24;100.00
59103;BME280;43999;51.660;5.616;2023-03-22T04:19:30;100518.66;;;9.22;100.00
59103;BME280;43999;51.660;5.616;2023-03-22T04:22:00;100516.97;;;9.21;100.00
59103;BME280;43999;51.660;5.616;2023-03-22T04:24:41;100520.56;;;9.18;100.00
59103;BME280;43999;51.660;5.616;2023-03-22T04:27:09;100511.97;;;9.16;100.00
59103;BME280;43999;51.660;5.616;2023-03-22T04:29:51;100512.97;;;9.13;100.00
59103;BME280;43999;51.660;5.616;2023-03-22T04:32:41;100510.44;;;9.12;100.00
59103;BME280;43999;51.660;5.616;2023-03-22T04:35:14;100499.22;;;9.10;100.00
59103;BME280;43999;51.660;5.616;2023-03-22T04:37:46;100507.06;;;9.10;100.00
59103;BME280;43999;51.660;5.616;2023-03-22T04:40:17;100501.19;;;9.06;100.00
59103;BME280;43999;51.660;5.616;2023-03-22T04:43:01;100496.03;;;9.05;100.00
59103;BME280;43999;51.660;5.616;2023-03-22T04:45:53;100492.72;;;9.01;100.00
59103;BME280;43999;51.660;5.616;2023-03-22T04:48:29;100496.28;;;9.00;100.00
59103;BME280;43999;51.660;5.616;2023-03-22T04:51:00;100498.03;;;9.00;100.00
59103;BME280;43999;51.660;5.616;2023-03-22T04:53:40;100493.81;;;8.97;100.00
59103;BME280;43999;51.660;5.616;2023-03-22T04:56:12;100493.81;;;8.97;100.00
59103;BME280;43999;51.660;5.616;2023-03-22T04:58:43;100492.94;;;8.96;100.00
59103;BME280;43999;51.660;5.616;2023-03-22T05:01:17;100486.81;;;8.97;100.00
59103;BME280;43999;51.660;5.616;2023-03-22T05:03:52;100482.50;;;8.96;100.00
59103;BME280;43999;51.660;5.616;2023-03-22T05:06:23;100492.03;;;8.97;100.00
59103;BME280;43999;51.660;5.616;2023-03-22T05:09:22;100488.44;;;9.00;100.00
59103;BME280;43999;51.660;5.616;2023-03-22T05:11:52;100491.03;;;9.00;100.00
59103;BME280;43999;51.660;5.616;2023-03-22T05:14:25;100481.44;;;9.01;100.00
59103;BME280;43999;51.660;5.616;2023-03-22T05:16:55;100478.72;;;9.02;100.00
59103;BME280;43999;51.660;5.616;2023-03-22T05:19:22;100471.81;;;9.01;100.00
59103;BME280;43999;51.660;5.616;2023-03-22T05:21:51;100483.03;;;9.03;100.00
59103;BME280;43999;51.660;5.616;2023-03-22T05:24:44;100483.13;;;9.02;100.00
59103;BME280;43999;51.660;5.616;2023-03-22T05:27:21;100489.19;;;9.02;100.00
59103;BME280;43999;51.660;5.616;2023-03-22T05:30:07;100478.81;;;9.01;100.00
59103;BME280;43999;51.660;5.616;2023-03-22T05:33:00;100483.13;;;9.02;100.00
59103;BME280;43999;51.660;5.616;2023-03-22T05:35:40;100476.28;;;8.99;100.00
59103;BME280;43999;51.660;5.616;2023-03-22T05:38:11;100468.44;;;8.99;100.00
59103;BME280;43999;51.660;5.616;2023-03-22T05:40:46;100479.66;;;9.01;100.00
59103;BME280;43999;51.660;5.616;2023-03-22T05:43:15;100478.88;;;8.99;100.00
59103;BME280;43999;51.660;5.616;2023-03-22T05:45:47;100491.97;;;8.99;100.00
59103;BME280;43999;51.660;5.616;2023-03-22T05:48:40;100478.81;;;9.01;100.00
59103;BME280;43999;51.660;5.616;2023-03-22T05:51:12;100469.28;;;9.00;100.00
59103;BME280;43999;51.660;5.616;2023-03-22T05:53:47;100473.75;;;8.97;100.00
59103;BME280;43999;51.660;5.616;2023-03-22T05:56:23;100474.59;;;8.98;100.00
59103;BME280;43999;51.660;5.616;2023-03-22T05:59:03;100486.81;;;8.97;100.00
59103;BME280;43999;51.660;5.616;2023-03-22T06:01:31;100471.13;;;8.97;100.00
59103;BME280;43999;51.660;5.616;2023-03-22T06:04:27;100488.59;;;8.97;100.00
59103;BME280;43999;51.660;5.616;2023-03-22T06:07:00;100478.97;;;8.97;100.00
59103;BME280;43999;51.660;5.616;2023-03-22T06:09:41;100484.13;;;8.99;100.00
59103;BME280;43999;51.660;5.616;2023-03-22T06:12:16;100480.50;;;9.02;100.00
59103;BME280;43999;51.660;5.616;2023-03-22T06:14:51;100483.19;;;9.00;100.00
59103;BME280;43999;51.660;5.616;2023-03-22T06:17:35;100472.59;;;9.03;100.00
59103;BME280;43999;51.660;5.616;2023-03-22T06:20:13;100467.34;;;9.03;100.00
59103;BME280;43999;51.660;5.616;2023-03-22T06:22:51;100468.19;;;9.04;100.00
59103;BME280;43999;51.660;5.616;2023-03-22T06:25:20;100478.72;;;9.02;100.00
59103;BME280;43999;51.660;5.616;2023-03-22T06:27:49;100458.50;;;9.06;100.00
59103;BME280;43999;51.660;5.616;2023-03-22T06:30:24;100466.09;;;9.10;100.00
59103;BME280;43999;51.660;5.616;2023-03-22T06:33:08;100463.31;;;9.13;100.00
59103;BME280;43999;51.660;5.616;2023-03-22T06:35:39;100465.59;;;9.20;100.00
59103;BME280;43999;51.660;5.616;2023-03-22T06:38:13;100469.75;;;9.24;100.00
59103;BME280;43999;51.660;5.616;2023-03-22T06:40:45;100461.66;;;9.28;100.00
59103;BME280;43999;51.660;5.616;2023-03-22T06:43:14;100469.16;;;9.35;100.00
59103;BME280;43999;51.660;5.616;2023-03-22T06:45:51;100470.66;;;9.39;100.00
59103;BME280;43999;51.660;5.616;2023-03-22T06:48:30;100467.69;;;9.45;100.00
59103;BME280;43999;51.660;5.616;2023-03-22T06:51:05;100477.16;;;9.47;100.00
59103;BME280;43999;51.660;5.616;2023-03-22T06:53:35;100484.91;;;9.49;100.00
59103;BME280;43999;51.660;5.616;2023-03-22T06:56:06;100470.84;;;9.51;100.00
59103;BME280;43999;51.660;5.616;2023-03-22T06:58:46;100479.34;;;9.55;100.00
59103;BME280;43999;51.660;5.616;2023-03-22T07:01:15;100482.53;;;9.60;100.00
59103;BME280;43999;51.660;5.616;2023-03-22T07:03:44;100491.75;;;9.67;100.00
59103;BME280;43999;51.660;5.616;2023-03-22T07:06:18;100481.78;;;9.74;100.00
59103;BME280;43999;51.660;5.616;2023-03-22T07:08:54;100475.28;;;9.81;100.00
59103;BME280;43999;51.660;5.616;2023-03-22T07:11:28;100480.81;;;9.91;100.00
59103;BME280;43999;51.660;5.616;2023-03-22T07:13:59;100465.56;;;9.99;100.00
59103;BME280;43999;51.660;5.616;2023-03-22T07:16:47;100472.97;;;10.07;100.00
59103;BME280;43999;51.660;5.616;2023-03-22T07:19:17;100467.47;;;10.12;100.00
59103;BME280;43999;51.660;5.616;2023-03-22T07:21:47;100465.69;;;10.12;100.00
59103;BME280;43999;51.660;5.616;2023-03-22T07:24:28;100467.56;;;10.10;100.00
59103;BME280;43999;51.660;5.616;2023-03-22T07:27:02;100477.50;;;10.03;100.00
59103;BME280;43999;51.660;5.616;2023-03-22T07:29:31;100475.84;;;10.02;100.00
59103;BME280;43999;51.660;5.616;2023-03-22T07:31:59;100474.16;;;10.01;100.00
59103;BME280;43999;51.660;5.616;2023-03-22T07:34:40;100477.59;;;10.02;100.00
59103;BME280;43999;51.660;5.616;2023-03-22T07:37:14;100474.16;;;10.01;100.00
59103;BME280;43999;51.660;5.616;2023-03-22T07:39:41;100482.75;;;10.03;100.00
59103;BME280;43999;51.660;5.616;2023-03-22T07:42:09;100486.88;;;10.08;100.00
59103;BME280;43999;51.660;5.616;2023-03-22T07:44:55;100476.88;;;10.14;100.00
59103;BME280;43999;51.660;5.616;2023-03-22T07:47:24;100478.41;;;10.18;100.00
59103;BME280;43999;51.660;5.616;2023-03-22T07:50:26;100473.56;;;10.27;100.00
59103;BME280;43999;51.660;5.616;2023-03-22T07:52:56;100483.13;;;10.28;100.00
59103;BME280;43999;51.660;5.616;2023-03-22T07:55:24;100485.31;;;10.35;100.00
59103;BME280;43999;51.660;5.616;2023-03-22T07:57:52;100483.25;;;10.40;100.00
59103;BME280;43999;51.660;5.616;2023-03-22T08:00:22;100479.53;;;10.45;100.00
59103;BME280;43999;51.660;5.616;2023-03-22T08:03:11;100491.34;;;10.52;100.00
59103;BME280;43999;51.660;5.616;2023-03-22T08:06:01;100493.66;;;10.56;100.00
59103;BME280;43999;51.660;5.616;2023-03-22T08:08:35;100489.09;;;10.60;100.00
59103;BME280;43999;51.660;5.616;2023-03-22T08:11:05;100490.69;;;10.63;100.00
59103;BME280;43999;51.660;5.616;2023-03-22T08:13:34;100487.97;;;10.64;100.00
59103;BME280;43999;51.660;5.616;2023-03-22T08:16:03;100493.22;;;10.64;100.00
59103;BME280;43999;51.660;5.616;2023-03-22T08:18:32;100486.13;;;10.66;100.00
59103;BME280;43999;51.660;5.616;2023-03-22T08:20:59;100491.09;;;10.71;100.00
59103;BME280;43999;51.660;5.616;2023-03-22T08:23:30;100490.81;;;10.75;100.00
59103;BME280;43999;51.660;5.616;2023-03-22T08:26:26;100482.41;;;10.85;100.00
59103;BME280;43999;51.660;5.616;2023-03-22T08:28:56;100483.59;;;10.93;100.00
59103;BME280;43999;51.660;5.616;2023-03-22T08:31:24;100492.97;;;10.98;100.00
59103;BME280;43999;51.660;5.616;2023-03-22T08:33:52;100476.84;;;11.04;100.00
59103;BME280;43999;51.660;5.616;2023-03-22T08:36:21;100491.19;;;11.12;100.00
59103;BME280;43999;51.660;5.616;2023-03-22T08:38:57;100487.31;;;11.18;100.00
59103;BME280;43999;51.660;5.616;2023-03-22T08:41:36;100476.06;;;11.30;100.00
59103;BME280;43999;51.660;5.616;2023-03-22T08:44:05;100473.84;;;11.39;100.00
59103;BME280;43999;51.660;5.616;2023-03-22T08:46:34;100475.97;;;11.46;100.00
59103;BME280;43999;51.660;5.616;2023-03-22T08:49:02;100465.09;;;11.53;100.00
59103;BME280;43999;51.660;5.616;2023-03-22T08:51:38;100476.22;;;11.56;100.00
59103;BME280;43999;51.660;5.616;2023-03-22T08:54:15;100462.91;;;11.59;100.00
59103;BME280;43999;51.660;5.616;2023-03-22T08:56:51;100459.97;;;11.64;100.00
59103;BME280;43999;51.660;5.616;2023-03-22T08:59:37;100468.50;;;11.68;100.00
59103;BME280;43999;51.660;5.616;2023-03-22T09:02:28;100450.97;;;11.68;100.00
59103;BME280;43999;51.660;5.616;2023-03-22T09:04:57;100466.63;;;11.70;100.00
59103;BME280;43999;51.660;5.616;2023-03-22T09:07:24;100468.00;;;11.75;100.00
59103;BME280;43999;51.660;5.616;2023-03-22T09:10:05;100471.72;;;11.86;100.00
59103;BME280;43999;51.660;5.616;2023-03-22T09:12:36;100457.25;;;11.93;100.00
59103;BME280;43999;51.660;5.616;2023-03-22T09:15:06;100466.53;;;11.98;100.00
59103;BME280;43999;51.660;5.616;2023-03-22T09:17:41;100464.31;;;12.05;100.00
59103;BME280;43999;51.660;5.616;2023-03-22T09:20:09;100444.81;;;12.09;100.00
59103;BME280;43999;51.660;5.616;2023-03-22T09:22:41;100457.63;;;12.14;100.00
59103;BME280;43999;51.660;5.616;2023-03-22T09:25:11;100462.69;;;12.17;100.00
59103;BME280;43999;51.660;5.616;2023-03-22T09:27:42;100459.75;;;12.22;100.00
59103;BME280;43999;51.660;5.616;2023-03-22T09:30:10;100452.50;;;12.25;100.00
59103;BME280;43999;51.660;5.616;2023-03-22T09:32:37;100452.19;;;12.30;100.00
59103;BME280;43999;51.660;5.616;2023-03-22T09:35:10;100458.00;;;12.35;100.00
59103;BME280;43999;51.660;5.616;2023-03-22T09:37:52;100459.66;;;12.36;100.00
59103;BME280;43999;51.660;5.616;2023-03-22T09:40:29;100446.19;;;12.28;100.00
59103;BME280;43999;51.660;5.616;2023-03-22T09:43:06;100443.38;;;12.18;100.00
59103;BME280;43999;51.660;5.616;2023-03-22T09:45:46;100461.19;;;12.13;100.00
59103;BME280;43999;51.660;5.616;2023-03-22T09:48:31;100460.66;;;12.08;100.00
59103;BME280;43999;51.660;5.616;2023-03-22T09:51:03;100457.41;;;12.04;100.00
59103;BME280;43999;51.660;5.616;2023-03-22T09:53:33;100443.53;;;12.02;100.00
59103;BME280;43999;51.660;5.616;2023-03-22T09:56:27;100444.47;;;12.01;100.00
59103;BME280;43999;51.660;5.616;2023-03-22T09:59:50;100437.63;;;11.98;100.00
59103;BME280;43999;51.660;5.616;2023-03-22T10:06:26;100443.72;;;11.99;100.00
59103;BME280;43999;51.660;5.616;2023-03-22T10:09:10;100444.69;;;11.98;100.00
59103;BME280;43999;51.660;5.616;2023-03-22T10:12:07;100438.56;;;11.97;100.00
59103;BME280;43999;51.660;5.616;2023-03-22T10:17:51;100443.94;;;11.96;100.00
59103;BME280;43999;51.660;5.616;2023-03-22T10:21:07;100433.63;;;11.93;100.00
59103;BME280;43999;51.660;5.616;2023-03-22T10:23:49;100448.09;;;11.86;100.00
59103;BME280;43999;51.660;5.616;2023-03-22T10:26:38;100453.34;;;11.86;100.00
59103;BME280;43999;51.660;5.616;2023-03-22T10:29:11;100452.16;;;11.77;100.00
59103;BME280;43999;51.660;5.616;2023-03-22T10:31:43;100450.22;;;11.66;100.00
59103;BME280;43999;51.660;5.616;2023-03-22T10:34:26;100445.56;;;11.57;100.00
59103;BME280;43999;51.660;5.616;2023-03-22T10:36:59;100476.56;;;11.37;100.00
59103;BME280;43999;51.660;5.616;2023-03-22T10:39:50;100463.19;;;11.13;100.00
59103;BME280;43999;51.660;5.616;2023-03-22T10:42:24;100454.13;;;10.90;100.00
59103;BME280;43999;51.660;5.616;2023-03-22T10:45:07;100454.69;;;10.66;100.00
59103;BME280;43999;51.660;5.616;2023-03-22T10:50:46;100465.19;;;10.36;100.00
59103;BME280;43999;51.660;5.616;2023-03-22T10:56:17;100463.84;;;10.29;100.00
59103;BME280;43999;51.660;5.616;2023-03-22T10:58:48;100468.41;;;10.25;100.00
59103;BME280;43999;51.660;5.616;2023-03-22T11:01:29;100453.66;;;10.24;100.00
59103;BME280;43999;51.660;5.616;2023-03-22T11:04:14;100466.84;;;10.22;100.00
59103;BME280;43999;51.660;5.616;2023-03-22T11:06:51;100458.13;;;10.22;100.00
59103;BME280;43999;51.660;5.616;2023-03-22T11:09:24;100470.47;;;10.20;100.00
59103;BME280;43999;51.660;5.616;2023-03-22T11:11:53;100467.19;;;10.16;100.00
59103;BME280;43999;51.660;5.616;2023-03-22T11:14:42;100465.75;;;10.11;100.00
59103;BME280;43999;51.660;5.616;2023-03-22T11:17:13;100448.34;;;10.10;100.00
59103;BME280;43999;51.660;5.616;2023-03-22T11:19:54;100459.09;;;10.05;100.00
59103;BME280;43999;51.660;5.616;2023-03-22T11:22:37;100461.72;;;10.05;100.00
59103;BME280;43999;51.660;5.616;2023-03-22T11:25:35;100458.34;;;10.03;100.00
59103;BME280;43999;51.660;5.616;2023-03-22T11:29:09;100468.66;;;10.06;100.00
59103;BME280;43999;51.660;5.616;2023-03-22T11:31:19;100457.44;;;10.04;100.00
59103;BME280;43999;51.660;5.616;2023-03-22T11:33:54;100452.84;;;10.08;100.00
59103;BME280;43999;51.660;5.616;2023-03-22T11:36:24;100459.53;;;10.13;100.00
59103;BME280;43999;51.660;5.616;2023-03-22T11:39:05;100462.03;;;10.15;100.00
59103;BME280;43999;51.660;5.616;2023-03-22T11:41:35;100454.28;;;10.13;100.00
59103;BME280;43999;51.660;5.616;2023-03-22T11:44:15;100453.25;;;10.16;100.00
59103;BME280;43999;51.660;5.616;2023-03-22T11:46:55;100449.44;;;10.21;100.00
59103;BME280;43999;51.660;5.616;2023-03-22T11:49:47;100449.81;;;10.30;100.00
59103;BME280;43999;51.660;5.616;2023-03-22T11:52:25;100458.13;;;10.38;100.00
59103;BME280;43999;51.660;5.616;2023-03-22T11:54:54;100449.63;;;10.49;100.00
59103;BME280;43999;51.660;5.616;2023-03-22T11:57:30;100438.97;;;10.52;100.00
59103;BME280;43999;51.660;5.616;2023-03-22T12:00:17;100447.00;;;10.63;100.00
59103;BME280;43999;51.660;5.616;2023-03-22T12:03:02;100439.41;;;10.73;100.00
59103;BME280;43999;51.660;5.616;2023-03-22T12:05:36;100454.13;;;10.75;100.00
59103;BME280;43999;51.660;5.616;2023-03-22T12:08:24;100441.09;;;10.74;100.00
59103;BME280;43999;51.660;5.616;2023-03-22T12:11:06;100427.44;;;10.83;100.00
59103;BME280;43999;51.660;5.616;2023-03-22T12:14:07;100435.66;;;10.91;100.00
59103;BME280;43999;51.660;5.616;2023-03-22T12:20:11;100425.06;;;11.07;100.00
59103;BME280;43999;51.660;5.616;2023-03-22T12:23:14;100431.16;;;11.08;100.00
59103;BME280;43999;51.660;5.616;2023-03-22T12:26:00;100442.94;;;11.15;100.00
59103;BME280;43999;51.660;5.616;2023-03-22T12:31:01;100421.47;;;11.23;100.00
59103;BME280;43999;51.660;5.616;2023-03-22T12:33:54;100430.31;;;11.22;100.00
59103;BME280;43999;51.660;5.616;2023-03-22T12:36:41;100422.16;;;11.26;100.00
59103;BME280;43999;51.660;5.616;2023-03-22T12:39:27;100417.19;;;11.22;100.00
59103;BME280;43999;51.660;5.616;2023-03-22T12:42:27;100429.91;;;11.28;100.00
59103;BME280;43999;51.660;5.616;2023-03-22T12:45:20;100433.28;;;11.30;100.00
59103;BME280;43999;51.660;5.616;2023-03-22T12:51:01;100435.59;;;11.35;100.00
59103;BME280;43999;51.660;5.616;2023-03-22T12:53:40;100432.16;;;11.34;100.00
59103;BME280;43999;51.660;5.616;2023-03-22T12:56:15;100423.63;;;11.30;100.00
59103;BME280;43999;51.660;5.616;2023-03-22T12:58:49;100427.94;;;11.32;100.00
59103;BME280;43999;51.660;5.616;2023-03-22T13:07:15;100442.75;;;11.33;100.00
59103;BME280;43999;51.660;5.616;2023-03-22T13:21:14;100415.91;;;11.42;100.00
59103;BME280;43999;51.660;5.616;2023-03-22T13:26:52;100417.38;;;11.46;100.00
59103;BME280;43999;51.660;5.616;2023-03-22T13:29:36;100430.41;;;11.47;100.00
59103;BME280;43999;51.660;5.616;2023-03-22T13:32:28;100427.78;;;11.47;100.00
59103;BME280;43999;51.660;5.616;2023-03-22T13:35:00;100425.06;;;11.49;100.00
59103;BME280;43999;51.660;5.616;2023-03-22T13:37:46;100428.66;;;11.48;100.00
59103;BME280;43999;51.660;5.616;2023-03-22T13:40:35;100432.09;;;11.48;100.00
59103;BME280;43999;51.660;5.616;2023-03-22T13:43:23;100429.78;;;11.44;100.00
59103;BME280;43999;51.660;5.616;2023-03-22T13:51:36;100420.78;;;11.48;100.00
59103;BME280;43999;51.660;5.616;2023-03-22T13:56:56;100417.75;;;11.54;100.00
59103;BME280;43999;51.660;5.616;2023-03-22T14:05:15;100424.66;;;11.55;100.00
59103;BME280;43999;51.660;5.616;2023-03-22T14:07:54;100412.22;;;11.59;100.00
59103;BME280;43999;51.660;5.616;2023-03-22T14:10:45;100413.88;;;11.60;100.00
59103;BME280;43999;51.660;5.616;2023-03-22T14:13:30;100421.66;;;11.61;100.00
59103;BME280;43999;51.660;5.616;2023-03-22T14:19:22;100422.09;;;11.68;100.00
59103;BME280;43999;51.660;5.616;2023-03-22T14:21:57;100407.28;;;11.67;100.00
59103;BME280;43999;51.660;5.616;2023-03-22T14:24:30;100412.63;;;11.65;100.00
59103;BME280;43999;51.660;5.616;2023-03-22T14:26:58;100407.88;;;11.58;100.00
59103;BME280;43999;51.660;5.616;2023-03-22T14:30:01;100409.63;;;11.44;100.00
59103;BME280;43999;51.660;5.616;2023-03-22T14:32:28;100404.13;;;11.35;100.00
59103;BME280;43999;51.660;5.616;2023-03-22T14:35:17;100396.34;;;11.33;100.00
59103;BME280;43999;51.660;5.616;2023-03-22T14:37:47;100387.56;;;11.34;100.00
59103;BME280;43999;51.660;5.616;2023-03-22T14:40:27;100398.59;;;11.39;100.00
59103;BME280;43999;51.660;5.616;2023-03-22T14:46:06;100394.53;;;11.48;100.00
59103;BME280;43999;51.660;5.616;2023-03-22T14:48:38;100395.47;;;11.47;100.00
59103;BME280;43999;51.660;5.616;2023-03-22T14:51:07;100394.72;;;11.45;100.00
59103;BME280;43999;51.660;5.616;2023-03-22T14:53:40;100388.91;;;11.40;100.00
59103;BME280;43999;51.660;5.616;2023-03-22T14:56:25;100383.34;;;11.32;100.00
59103;BME280;43999;51.660;5.616;2023-03-22T14:58:58;100384.66;;;11.24;100.00
59103;BME280;43999;51.660;5.616;2023-03-22T15:01:50;100373.34;;;11.24;100.00
59103;BME280;43999;51.660;5.616;2023-03-22T15:04:20;100375.13;;;11.23;100.00
59103;BME280;43999;51.660;5.616;2023-03-22T15:06:48;100381.09;;;11.25;100.00
59103;BME280;43999;51.660;5.616;2023-03-22T15:09:27;100373.97;;;11.27;100.00
59103;BME280;43999;51.660;5.616;2023-03-22T15:11:59;100384.66;;;11.24;100.00
59103;BME280;43999;51.660;5.616;2023-03-22T15:14:29;100383.09;;;11.22;100.00
59103;BME280;43999;51.660;5.616;2023-03-22T15:17:00;100384.41;;;11.15;100.00